sensor_id;sensor_type;location;lat;lon;timestamp;P1;durP1;ratioP1;P2;durP2;ratioP2
66609;SDS011;53468;48.276;14.416;2023-06-22T04:52:17;34.97;;;32.92;;
66609;SDS011;53468;48.276;14.416;2023-06-22T04:57:34;35.72;;;34.13;;
66609;SDS011;53468;48.276;14.416;2023-06-22T05:08:11;73.65;;;70.25;;
66609;SDS011;53468;48.276;14.416;2023-06-22T05:13:15;36.33;;;33.90;;
66609;SDS011;53468;48.276;14.416;2023-06-22T05:18:21;38.03;;;35.78;;
66609;SDS011;53468;48.276;14.416;2023-06-22T05:23:24;38.85;;;36.92;;
66609;SDS011;53468;48.276;14.416;2023-06-22T05:28:27;38.63;;;36.55;;
66609;SDS011;53468;48.276;14.416;2023-06-22T05:33:33;35.88;;;34.05;;
66609;SDS011;53468;48.276;14.416;2023-06-22T05:38:36;36.15;;;34.47;;
66609;SDS011;53468;48.276;14.416;2023-06-22T05:43:38;32.03;;;30.00;;
66609;SDS011;53468;48.276;14.416;2023-06-22T05:48:42;44.70;;;42.50;;
66609;SDS011;53468;48.276;14.416;2023-06-22T05:53:45;40.05;;;38.03;;
66609;SDS011;53468;48.276;14.416;2023-06-22T05:58:50;159.30;;;152.40;;
66609;SDS011;53468;48.276;14.416;2023-06-22T06:03:54;97.28;;;93.30;;
66609;SDS011;53468;48.276;14.416;2023-06-22T06:08:56;47.33;;;44.95;;
66609;SDS011;53468;48.276;14.416;2023-06-22T06:13:58;46.83;;;44.63;;
66609;SDS011;53468;48.276;14.416;2023-06-22T06:19:03;58.70;;;55.75;;
66609;SDS011;53468;48.276;14.416;2023-06-22T06:24:06;60.75;;;58.05;;
66609;SDS011;53468;48.276;14.416;2023-06-22T06:29:08;89.40;;;85.47;;
66609;SDS011;53468;48.276;14.416;2023-06-22T06:34:11;55.33;;;52.72;;
66609;SDS011;53468;48.276;14.416;2023-06-22T06:39:14;104.35;;;99.97;;
66609;SDS011;53468;48.276;14.416;2023-06-22T06:44:18;85.05;;;81.60;;
66609;SDS011;53468;48.276;14.416;2023-06-22T06:49:24;46.33;;;43.90;;
66609;SDS011;53468;48.276;14.416;2023-06-22T06:54:26;56.40;;;53.83;;
66609;SDS011;53468;48.276;14.416;2023-06-22T06:59:28;73.90;;;70.80;;
66609;SDS011;53468;48.276;14.416;2023-06-22T07:04:32;65.78;;;63.03;;
66609;SDS011;53468;48.276;14.416;2023-06-22T07:09:34;82.85;;;79.20;;
66609;SDS011;53468;48.276;14.416;2023-06-22T07:14:36;65.72;;;62.88;;
66609;SDS011;53468;48.276;14.416;2023-06-22T07:19:40;40.08;;;38.10;;
66609;SDS011;53468;48.276;14.416;2023-06-22T07:24:42;53.35;;;50.83;;
66609;SDS011;53468;48.276;14.416;2023-06-22T07:29:44;68.35;;;65.32;;
66609;SDS011;53468;48.276;14.416;2023-06-22T07:34:48;92.85;;;89.18;;
66609;SDS011;53468;48.276;14.416;2023-06-22T07:39:50;108.88;;;104.25;;
66609;SDS011;53468;48.276;14.416;2023-06-22T07:44:54;137.23;;;131.55;;
66609;SDS011;53468;48.276;14.416;2023-06-22T07:49:58;53.20;;;50.58;;
66609;SDS011;53468;48.276;14.416;2023-06-22T07:55:01;76.78;;;73.32;;
66609;SDS011;53468;48.276;14.416;2023-06-22T08:00:07;86.50;;;82.88;;
66609;SDS011;53468;48.276;14.416;2023-06-22T08:05:16;118.28;;;113.47;;
66609;SDS011;53468;48.276;14.416;2023-06-22T08:10:18;97.93;;;93.68;;
66609;SDS011;53468;48.276;14.416;2023-06-22T08:15:21;47.35;;;45.05;;
66609;SDS011;53468;48.276;14.416;2023-06-22T08:20:25;45.83;;;43.53;;
66609;SDS011;53468;48.276;14.416;2023-06-22T08:25:27;98.68;;;94.45;;
66609;SDS011;53468;48.276;14.416;2023-06-22T08:30:29;62.83;;;60.03;;
66609;SDS011;53468;48.276;14.416;2023-06-22T08:35:33;70.68;;;67.68;;
66609;SDS011;53468;48.276;14.416;2023-06-22T08:40:35;49.80;;;47.40;;
66609;SDS011;53468;48.276;14.416;2023-06-22T08:45:37;74.15;;;70.50;;
66609;SDS011;53468;48.276;14.416;2023-06-22T08:50:41;83.95;;;80.50;;
66609;SDS011;53468;48.276;14.416;2023-06-22T08:55:42;88.10;;;84.40;;
66609;SDS011;53468;48.276;14.416;2023-06-22T09:00:45;63.30;;;60.30;;
66609;SDS011;53468;48.276;14.416;2023-06-22T09:05:49;84.40;;;80.78;;
66609;SDS011;53468;48.276;14.416;2023-06-22T09:10:51;57.58;;;54.65;;
66609;SDS011;53468;48.276;14.416;2023-06-22T09:15:53;77.78;;;74.43;;
66609;SDS011;53468;48.276;14.416;2023-06-22T09:20:57;57.55;;;55.00;;
66609;SDS011;53468;48.276;14.416;2023-06-22T09:25:59;60.30;;;57.20;;
66609;SDS011;53468;48.276;14.416;2023-06-22T09:31:01;72.30;;;68.78;;
66609;SDS011;53468;48.276;14.416;2023-06-22T09:36:04;77.55;;;74.15;;
66609;SDS011;53468;48.276;14.416;2023-06-22T09:41:07;47.95;;;45.65;;
66609;SDS011;53468;48.276;14.416;2023-06-22T09:46:10;51.28;;;48.55;;
66609;SDS011;53468;48.276;14.416;2023-06-22T09:51:13;54.75;;;52.15;;
66609;SDS011;53468;48.276;14.416;2023-06-22T09:56:15;69.97;;;66.63;;
66609;SDS011;53468;48.276;14.416;2023-06-22T10:01:17;26.70;;;25.33;;
66609;SDS011;53468;48.276;14.416;2023-06-22T10:06:22;69.93;;;66.82;;
66609;SDS011;53468;48.276;14.416;2023-06-22T10:11:25;83.90;;;80.43;;
66609;SDS011;53468;48.276;14.416;2023-06-22T10:16:30;48.88;;;46.17;;
66609;SDS011;53468;48.276;14.416;2023-06-22T10:21:34;33.67;;;31.98;;
66609;SDS011;53468;48.276;14.416;2023-06-22T10:26:36;32.45;;;30.63;;
66609;SDS011;53468;48.276;14.416;2023-06-22T10:31:38;31.80;;;29.95;;
66609;SDS011;53468;48.276;14.416;2023-06-22T10:36:41;27.02;;;25.33;;
66609;SDS011;53468;48.276;14.416;2023-06-22T10:41:43;30.52;;;28.55;;
66609;SDS011;53468;48.276;14.416;2023-06-22T10:46:45;40.13;;;37.92;;
66609;SDS011;53468;48.276;14.416;2023-06-22T10:51:49;36.10;;;34.15;;
66609;SDS011;53468;48.276;14.416;2023-06-22T10:56:50;62.92;;;59.63;;
66609;SDS011;53468;48.276;14.416;2023-06-22T11:01:52;37.97;;;35.97;;
66609;SDS011;53468;48.276;14.416;2023-06-22T11:06:57;57.53;;;54.70;;
66609;SDS011;53468;48.276;14.416;2023-06-22T11:12:00;89.95;;;85.82;;
66609;SDS011;53468;48.276;14.416;2023-06-22T11:17:02;86.93;;;83.15;;
66609;SDS011;53468;48.276;14.416;2023-06-22T11:22:07;89.78;;;85.25;;
66609;SDS011;53468;48.276;14.416;2023-06-22T11:27:09;77.25;;;73.72;;
66609;SDS011;53468;48.276;14.416;2023-06-22T11:32:11;60.67;;;57.45;;
66609;SDS011;53468;48.276;14.416;2023-06-22T11:37:15;88.13;;;84.03;;
66609;SDS011;53468;48.276;14.416;2023-06-22T11:42:18;56.90;;;53.75;;
66609;SDS011;53468;48.276;14.416;2023-06-22T11:47:20;61.10;;;58.40;;
66609;SDS011;53468;48.276;14.416;2023-06-22T11:52:26;68.70;;;64.88;;
66609;SDS011;53468;48.276;14.416;2023-06-22T11:57:29;69.30;;;66.07;;
66609;SDS011;53468;48.276;14.416;2023-06-22T12:02:31;66.10;;;63.00;;
66609;SDS011;53468;48.276;14.416;2023-06-22T12:07:34;51.85;;;49.35;;
66609;SDS011;53468;48.276;14.416;2023-06-22T12:12:37;40.67;;;38.33;;
66609;SDS011;53468;48.276;14.416;2023-06-22T12:17:39;65.32;;;61.85;;
66609;SDS011;53468;48.276;14.416;2023-06-22T12:22:43;127.85;;;122.75;;
66609;SDS011;53468;48.276;14.416;2023-06-22T12:27:45;57.28;;;54.25;;
66609;SDS011;53468;48.276;14.416;2023-06-22T12:32:47;62.65;;;59.78;;
66609;SDS011;53468;48.276;14.416;2023-06-22T12:37:52;101.55;;;97.00;;
66609;SDS011;53468;48.276;14.416;2023-06-22T12:42:54;127.70;;;122.28;;
66609;SDS011;53468;48.276;14.416;2023-06-22T12:47:56;142.85;;;136.80;;
66609;SDS011;53468;48.276;14.416;2023-06-22T12:52:59;81.25;;;77.75;;
66609;SDS011;53468;48.276;14.416;2023-06-22T12:58:03;103.10;;;98.30;;
66609;SDS011;53468;48.276;14.416;2023-06-22T13:03:05;109.05;;;104.00;;
66609;SDS011;53468;48.276;14.416;2023-06-22T13:08:08;115.20;;;109.70;;
66609;SDS011;53468;48.276;14.416;2023-06-22T13:13:11;92.35;;;88.07;;
66609;SDS011;53468;48.276;14.416;2023-06-22T13:18:14;131.13;;;125.75;;
66609;SDS011;53468;48.276;14.416;2023-06-22T13:23:18;161.38;;;154.82;;
66609;SDS011;53468;48.276;14.416;2023-06-22T13:28:20;91.88;;;87.70;;
66609;SDS011;53468;48.276;14.416;2023-06-22T13:33:22;145.52;;;139.55;;
66609;SDS011;53468;48.276;14.416;2023-06-22T13:38:26;105.68;;;101.22;;
66609;SDS011;53468;48.276;14.416;2023-06-22T13:43:28;125.38;;;119.50;;
66609;SDS011;53468;48.276;14.416;2023-06-22T13:48:30;130.77;;;125.35;;
66609;SDS011;53468;48.276;14.416;2023-06-22T13:53:33;108.30;;;103.10;;
66609;SDS011;53468;48.276;14.416;2023-06-22T13:58:35;108.65;;;103.65;;
66609;SDS011;53468;48.276;14.416;2023-06-22T14:03:37;98.75;;;94.43;;
66609;SDS011;53468;48.276;14.416;2023-06-22T14:08:42;91.78;;;87.65;;
66609;SDS011;53468;48.276;14.416;2023-06-22T14:13:44;79.75;;;75.32;;
66609;SDS011;53468;48.276;14.416;2023-06-22T14:18:46;68.35;;;64.68;;
66609;SDS011;53468;48.276;14.416;2023-06-22T14:23:50;89.93;;;85.82;;
66609;SDS011;53468;48.276;14.416;2023-06-22T14:28:52;85.07;;;80.97;;
66609;SDS011;53468;48.276;14.416;2023-06-22T14:33:54;88.22;;;84.20;;
66609;SDS011;53468;48.276;14.416;2023-06-22T14:38:58;87.55;;;83.05;;
66609;SDS011;53468;48.276;14.416;2023-06-22T14:44:00;114.28;;;108.93;;
66609;SDS011;53468;48.276;14.416;2023-06-22T14:49:03;82.57;;;78.53;;
66609;SDS011;53468;48.276;14.416;2023-06-22T14:54:06;67.63;;;63.53;;
66609;SDS011;53468;48.276;14.416;2023-06-22T14:59:08;46.97;;;44.55;;
66609;SDS011;53468;48.276;14.416;2023-06-22T15:04:11;80.38;;;76.45;;
66609;SDS011;53468;48.276;14.416;2023-06-22T15:09:14;92.43;;;87.82;;
66609;SDS011;53468;48.276;14.416;2023-06-22T15:14:18;110.57;;;104.93;;
66609;SDS011;53468;48.276;14.416;2023-06-22T15:19:20;94.78;;;90.25;;
66609;SDS011;53468;48.276;14.416;2023-06-22T15:24:25;74.88;;;71.10;;
66609;SDS011;53468;48.276;14.416;2023-06-22T15:29:27;86.28;;;82.32;;
66609;SDS011;53468;48.276;14.416;2023-06-22T15:34:34;91.47;;;87.13;;
66609;SDS011;53468;48.276;14.416;2023-06-22T15:39:37;97.80;;;93.35;;
66609;SDS011;53468;48.276;14.416;2023-06-22T15:44:39;111.15;;;106.03;;
66609;SDS011;53468;48.276;14.416;2023-06-22T15:49:41;131.13;;;125.32;;
66609;SDS011;53468;48.276;14.416;2023-06-22T15:54:45;93.63;;;88.68;;
66609;SDS011;53468;48.276;14.416;2023-06-22T15:59:47;86.82;;;83.00;;
66609;SDS011;53468;48.276;14.416;2023-06-22T16:04:49;93.90;;;89.07;;
66609;SDS011;53468;48.276;14.416;2023-06-22T16:09:54;104.53;;;99.63;;
66609;SDS011;53468;48.276;14.416;2023-06-22T16:14:56;95.80;;;91.32;;
66609;SDS011;53468;48.276;14.416;2023-06-22T16:19:58;93.57;;;88.70;;
66609;SDS011;53468;48.276;14.416;2023-06-22T16:25:02;95.68;;;91.55;;
66609;SDS011;53468;48.276;14.416;2023-06-22T16:30:05;86.10;;;82.38;;
66609;SDS011;53468;48.276;14.416;2023-06-22T16:35:08;114.18;;;109.13;;
66609;SDS011;53468;48.276;14.416;2023-06-22T16:40:12;117.82;;;112.60;;
66609;SDS011;53468;48.276;14.416;2023-06-22T16:45:15;104.68;;;99.78;;
66609;SDS011;53468;48.276;14.416;2023-06-22T16:50:17;141.98;;;135.75;;
66609;SDS011;53468;48.276;14.416;2023-06-22T16:55:23;139.35;;;133.60;;
66609;SDS011;53468;48.276;14.416;2023-06-22T17:00:26;215.05;;;206.02;;
66609;SDS011;53468;48.276;14.416;2023-06-22T17:05:28;171.15;;;163.88;;
66609;SDS011;53468;48.276;14.416;2023-06-22T17:10:34;164.45;;;157.57;;
66609;SDS011;53468;48.276;14.416;2023-06-22T17:15:37;126.20;;;120.97;;
66609;SDS011;53468;48.276;14.416;2023-06-22T17:20:42;199.63;;;191.15;;
66609;SDS011;53468;48.276;14.416;2023-06-22T17:25:46;125.85;;;120.55;;
66609;SDS011;53468;48.276;14.416;2023-06-22T17:30:53;154.73;;;147.63;;
66609;SDS011;53468;48.276;14.416;2023-06-22T17:36:10;137.98;;;131.82;;
66609;SDS011;53468;48.276;14.416;2023-06-22T17:41:15;115.90;;;110.80;;
66609;SDS011;53468;48.276;14.416;2023-06-22T17:46:17;86.15;;;81.97;;
66609;SDS011;53468;48.276;14.416;2023-06-22T17:51:20;145.02;;;138.90;;
66609;SDS011;53468;48.276;14.416;2023-06-22T17:56:23;127.85;;;122.13;;
66609;SDS011;53468;48.276;14.416;2023-06-22T18:01:27;84.10;;;80.25;;
66609;SDS011;53468;48.276;14.416;2023-06-22T18:06:30;157.18;;;150.27;;
66609;SDS011;53468;48.276;14.416;2023-06-22T18:11:40;171.95;;;163.98;;
66609;SDS011;53468;48.276;14.416;2023-06-22T18:16:45;149.38;;;142.90;;
66609;SDS011;53468;48.276;14.416;2023-06-22T18:21:49;224.75;;;215.75;;
66609;SDS011;53468;48.276;14.416;2023-06-22T18:26:52;227.38;;;217.20;;
66609;SDS011;53468;48.276;14.416;2023-06-22T18:31:57;182.45;;;174.68;;
66609;SDS011;53468;48.276;14.416;2023-06-22T18:36:59;236.27;;;226.05;;
66609;SDS011;53468;48.276;14.416;2023-06-22T18:42:07;222.90;;;212.98;;
66609;SDS011;53468;48.276;14.416;2023-06-22T18:47:10;264.70;;;252.75;;
66609;SDS011;53468;48.276;14.416;2023-06-22T18:52:14;137.23;;;130.55;;
66609;SDS011;53468;48.276;14.416;2023-06-22T18:57:21;106.78;;;102.13;;
66609;SDS011;53468;48.276;14.416;2023-06-22T19:02:34;167.02;;;160.00;;
66609;SDS011;53468;48.276;14.416;2023-06-22T19:13:24;166.05;;;158.18;;
66609;SDS011;53468;48.276;14.416;2023-06-22T19:18:31;221.93;;;211.93;;
66609;SDS011;53468;48.276;14.416;2023-06-22T19:23:37;117.60;;;111.97;;
66609;SDS011;53468;48.276;14.416;2023-06-22T19:28:46;116.80;;;111.07;;
66609;SDS011;53468;48.276;14.416;2023-06-22T19:39:10;84.60;;;80.60;;
66609;SDS011;53468;48.276;14.416;2023-06-22T19:44:28;70.05;;;66.45;;
66609;SDS011;53468;48.276;14.416;2023-06-22T19:49:46;96.82;;;92.22;;
66609;SDS011;53468;48.276;14.416;2023-06-22T19:55:07;113.20;;;107.80;;
66609;SDS011;53468;48.276;14.416;2023-06-22T20:00:31;141.90;;;135.63;;
66609;SDS011;53468;48.276;14.416;2023-06-22T20:05:45;136.35;;;129.77;;
66609;SDS011;53468;48.276;14.416;2023-06-22T20:10:49;131.65;;;125.22;;
66609;SDS011;53468;48.276;14.416;2023-06-22T20:16:09;114.70;;;109.25;;
66609;SDS011;53468;48.276;14.416;2023-06-22T20:21:18;98.18;;;93.70;;
66609;SDS011;53468;48.276;14.416;2023-06-22T20:26:24;86.03;;;81.80;;
66609;SDS011;53468;48.276;14.416;2023-06-22T20:31:34;145.55;;;139.18;;
66609;SDS011;53468;48.276;14.416;2023-06-22T20:36:44;176.73;;;168.57;;
66609;SDS011;53468;48.276;14.416;2023-06-22T20:42:08;230.35;;;220.43;;
66609;SDS011;53468;48.276;14.416;2023-06-22T20:53:15;215.03;;;205.73;;
66609;SDS011;53468;48.276;14.416;2023-06-22T20:58:23;227.90;;;217.82;;
66609;SDS011;53468;48.276;14.416;2023-06-22T21:03:31;142.15;;;135.90;;
66609;SDS011;53468;48.276;14.416;2023-06-22T21:09:09;174.55;;;167.05;;
66609;SDS011;53468;48.276;14.416;2023-06-22T21:14:57;221.95;;;212.15;;
66609;SDS011;53468;48.276;14.416;2023-06-22T21:26:12;276.45;;;263.75;;
66609;SDS011;53468;48.276;14.416;2023-06-22T21:31:28;194.25;;;185.43;;
66609;SDS011;53468;48.276;14.416;2023-06-22T21:54:26;74.95;;;71.15;;
66609;SDS011;53468;48.276;14.416;2023-06-22T21:59:38;61.35;;;58.20;;
66609;SDS011;53468;48.276;14.416;2023-06-22T22:05:14;68.85;;;65.10;;
66609;SDS011;53468;48.276;14.416;2023-06-22T22:10:44;70.25;;;66.90;;
66609;SDS011;53468;48.276;14.416;2023-06-22T22:16:04;81.50;;;77.43;;
66609;SDS011;53468;48.276;14.416;2023-06-22T22:21:26;120.40;;;114.78;;
66609;SDS011;53468;48.276;14.416;2023-06-22T22:38:51;61.70;;;58.30;;
66609;SDS011;53468;48.276;14.416;2023-06-22T22:44:24;101.63;;;97.03;;
66609;SDS011;53468;48.276;14.416;2023-06-22T22:55:54;88.70;;;84.25;;
66609;SDS011;53468;48.276;14.416;2023-06-22T23:01:14;109.75;;;104.60;;
66609;SDS011;53468;48.276;14.416;2023-06-22T23:07:08;77.22;;;71.85;;
66609;SDS011;53468;48.276;14.416;2023-06-22T23:12:56;79.07;;;74.97;;
66609;SDS011;53468;48.276;14.416;2023-06-22T23:18:22;81.00;;;76.25;;
66609;SDS011;53468;48.276;14.416;2023-06-22T23:24:00;50.35;;;47.05;;
66609;SDS011;53468;48.276;14.416;2023-06-22T23:35:33;51.47;;;48.67;;
66609;SDS011;53468;48.276;14.416;2023-06-22T23:41:12;40.97;;;38.67;;
66609;SDS011;53468;48.276;14.416;2023-06-22T23:46:34;43.83;;;41.58;;
66609;SDS011;53468;48.276;14.416;2023-06-22T23:58:14;37.08;;;34.50;;
